createdAt,value
2022-11-30T00:00:02.555Z,6.1
2022-11-30T00:15:02.927Z,6.1
2022-11-30T00:30:02.557Z,6.1
2022-11-30T00:45:02.767Z,6.1
2022-11-30T01:00:03.217Z,6.1
2022-11-30T01:15:02.655Z,6.0
2022-11-30T01:30:03.086Z,6.1
2022-11-30T01:45:02.582Z,6.0
2022-11-30T02:00:02.993Z,6.0
2022-11-30T02:15:02.566Z,6.0
2022-11-30T02:30:02.867Z,6.0
2022-11-30T02:45:02.287Z,6.0
2022-11-30T03:00:02.743Z,5.9
2022-11-30T03:15:03.181Z,5.9
2022-11-30T03:30:02.621Z,5.8
2022-11-30T03:45:03.061Z,5.8
2022-11-30T04:00:02.601Z,5.7
2022-11-30T04:15:02.915Z,5.7
2022-11-30T04:30:02.509Z,5.6
2022-11-30T04:45:02.777Z,5.6
2022-11-30T05:00:03.221Z,5.5
2022-11-30T05:15:02.661Z,5.5
2022-11-30T05:30:02.079Z,5.5
2022-11-30T05:45:02.631Z,5.5
2022-11-30T06:00:02.963Z,5.5
2022-11-30T06:15:02.613Z,5.5
2022-11-30T06:30:02.837Z,5.5
2022-11-30T06:45:02.256Z,5.6
2022-11-30T07:00:02.703Z,5.6
2022-11-30T07:15:03.144Z,5.5
2022-11-30T07:30:02.642Z,5.4
2022-11-30T07:45:03.032Z,5.3
2022-11-30T08:00:02.659Z,5.2
2022-11-30T08:15:20.178Z,5.1
2022-11-30T08:45:03.275Z,5.1
2022-11-30T09:00:03.178Z,5.0
2022-11-30T09:15:02.843Z,5.0
2022-11-30T09:30:02.040Z,5.1
2022-11-30T09:45:02.703Z,5.1
2022-11-30T10:00:02.913Z,5.1
2022-11-30T10:15:02.346Z,5.1
2022-11-30T10:30:02.793Z,5.1
2022-11-30T10:45:03.232Z,5.1
2022-11-30T11:00:02.692Z,5.1
2022-11-30T11:15:03.109Z,5.0
2022-11-30T11:30:02.707Z,5.0
2022-11-30T11:45:02.971Z,5.1
2022-11-30T12:00:02.404Z,5.0
2022-11-30T12:15:02.831Z,5.0
2022-11-30T12:30:02.285Z,5.0
2022-11-30T12:45:02.732Z,5.0
2022-11-30T13:00:03.147Z,4.9
2022-11-30T13:15:02.732Z,4.9
2022-11-30T13:30:03.021Z,4.8
2022-11-30T13:45:02.467Z,4.8
2022-11-30T14:00:02.908Z,4.7
2022-11-30T14:15:02.343Z,4.7
2022-11-30T14:30:02.950Z,4.7
2022-11-30T14:45:02.197Z,4.6
2022-11-30T15:00:02.842Z,4.7
2022-11-30T15:15:02.082Z,4.7
2022-11-30T15:30:02.738Z,4.7
2022-11-30T15:45:02.960Z,4.7
2022-11-30T16:00:02.477Z,4.7
2022-11-30T16:15:02.811Z,4.7
2022-11-30T16:30:02.239Z,4.8
2022-11-30T16:45:02.781Z,4.8
2022-11-30T17:00:03.127Z,4.9
2022-11-30T17:15:02.768Z,4.9
2022-11-30T17:30:01.997Z,4.9
2022-11-30T17:45:02.422Z,4.9
2022-11-30T18:00:02.900Z,4.9
2022-11-30T18:15:02.279Z,5.0
2022-11-30T18:30:07.305Z,4.9
2022-11-30T18:45:02.156Z,4.9
2022-11-30T19:00:02.797Z,4.9
2022-11-30T19:15:03.044Z,4.8
2022-11-30T19:30:02.451Z,4.9
2022-11-30T19:45:02.907Z,4.9
2022-11-30T20:00:02.325Z,4.9
2022-11-30T20:15:02.848Z,4.9
2022-11-30T20:30:02.188Z,4.9
2022-11-30T20:45:02.832Z,4.9
2022-11-30T21:00:02.087Z,4.9
2022-11-30T21:15:02.538Z,4.9
2022-11-30T21:30:02.992Z,4.9
2022-11-30T21:45:02.407Z,4.9
2022-11-30T22:00:02.833Z,4.9
2022-11-30T22:15:03.288Z,4.9
2022-11-30T22:30:02.840Z,4.9
2022-11-30T22:45:03.124Z,4.8
2022-11-30T23:00:02.581Z,4.8
2022-11-30T23:15:01.980Z,4.8
2022-11-30T23:30:02.432Z,4.8
2022-11-30T23:45:02.869Z,4.8
